x

St-athan (03716) Weather Station

8:00 - Wed 10th Feb 2016 All times are GMT.

  • Wind
    6mph
  • Aire Temp 40°f
  • Sea Pressure 1003mb
  • St-athan
  • St-athan

More Historic Weather Station data

Upgrade to MSW Pro to gain access to the past 30 days of data for over 8000 Wavebouys and Weather Stations around the globe.

Join Pro

Comparision Forecast

View Surf forecast
   
mié 02/10 8:00 6
mph
1003mb 40f
7:00 6
mph
1002mb 41f
6:00 5
mph
1002mb 41f
10:00 7
mph
998mb 43f
9:00 7
mph
997mb 41f
5:00 17
mph
994mb 41f
4:00 17
mph
994mb 42f
3:00 17 33 mph 994mb 41f
2:00 19 36 mph 993mb 42f
1:00 26 40 mph 993mb 41f
12:00 28 44 mph 992mb 42f
mar 02/09 11:00 29 46 mph 991mb 43f
10:00 32 45 mph 990mb 44f
9:00 31 45 mph 989mb 42f
8:00 28 45 mph 989mb 41f
7:00 24 39 mph 989mb 40f
6:00 22 36 mph 988mb 42f
5:00 25 40 mph 987mb 42f
4:00 22 38 mph 987mb 42f
3:00 21 41 mph 986mb 42f
2:00 22 32 mph 986mb 44f
1:00 8
mph
986mb 42f
12:00 11
mph
986mb 42f
11:00 13
mph
986mb 44f
10:00 8
mph
986mb 41f
9:00 9
mph
987mb 40f
8:00 8
mph
986mb 41f
7:00 11
mph
987mb 41f
6:00 13
mph
988mb 42f
5:00 14
mph
989mb 41f
4:00 17 33 mph 990mb 39f
3:00 18 30 mph 992mb 40f
2:00 17 33 mph 992mb 44f
1:00 19 34 mph 993mb 44f
12:00 28 51 mph 994mb 40f
lun 02/08 11:00 29 40 mph 994mb 43f
10:00 24 51 mph 994mb 44f
9:00 30 49 mph 994mb 45f
8:00 24 52 mph 994mb 43f
7:00 31 48 mph 994mb 46f
6:00 30 51 mph 993mb 46f
5:00 36 57 mph 991mb 47f
4:00 38 61 mph 990mb 47f
3:00 34 60 mph 988mb 47f
2:00 38 71 mph 987mb 47f
1:00 47 64 mph 985mb 47f
12:00 41 62 mph 984mb 47f
11:00 39 68 mph 983mb 46f
10:00 46 67 mph 982mb 46f
9:00 40 68 mph 982mb 46f
8:00 36 62 mph 981mb 47f
7:00 38 61 mph 981mb 47f
6:00 36 55 mph 981mb 47f
5:00 32 52 mph 982mb 43f
4:00 30 56 mph 982mb 45f
3:00 29 53 mph 983mb 47f
2:00 33 49 mph 983mb 44f
1:00 28 39 mph 983mb 46f
12:00 38 54 mph 984mb 44f
dom 02/07 11:00 32 47 mph 982mb 50f
10:00 28 48 mph 983mb 50f
9:00 36 66 mph 984mb 49f
8:00 31 47 mph 984mb 51f
7:00 22 39 mph 985mb 49f
6:00 24 34 mph 987mb 47f
5:00 17 31 mph 989mb 45f
4:00 19 32 mph 991mb 44f
3:00 25 41 mph 993mb 44f
2:00 26 44 mph 993mb 46f
1:00 25 38 mph 993mb 47f
12:00 24 36 mph 994mb 47f
11:00 24 43 mph 994mb 44f
10:00 21 38 mph 993mb 46f
8:00 24 43 mph 990mb 44f
7:00 26 43 mph 989mb 44f
6:00 26 37 mph 989mb 44f
5:00 19 33 mph 989mb 42f
4:00 19 34 mph 989mb 42f
3:00 31 48 mph 988mb 40f
2:00 19 36 mph 987mb 43f
1:00 23 36 mph 987mb 44f
12:00 19 38 mph 987mb 45f
sáb 02/06 11:00 17 36 mph 986mb 45f
10:00 21 46 mph 985mb 44f